Time;durP1;ratioP1;P1;durP2;ratioP2;P2;SDS_P1;SDS_P2;PMS_P1;PMS_P2;Temp;Humidity;BMP_temperature;BMP_pressure;BME280_temperature;BME280_humidity;BME280_pressure;Samples;Min_cycle;Max_cycle;Signal;HPM_P1;HPM_P2
2022/06/27 00:00:23;;;;;;;0.73;0.73;;;23.90;59.60;;;;;;4991681;28;20073;-70
2022/06/27 00:02:49;;;;;;;0.90;0.50;;;23.80;59.70;;;;;;4993564;28;20098;-69
2022/06/27 00:05:14;;;;;;;0.80;0.70;;;23.80;59.70;;;;;;4991351;28;20042;-68
2022/06/27 00:07:40;;;;;;;0.60;0.50;;;23.70;60.00;;;;;;4990581;28;20192;-69
2022/06/27 00:10:07;;;;;;;0.63;0.63;;;23.60;60.20;;;;;;4990486;28;20049;-69
2022/06/27 00:12:34;;;;;;;0.70;0.70;;;23.60;60.50;;;;;;4990377;28;20565;-69
2022/06/27 00:14:59;;;;;;;0.80;0.80;;;23.60;60.70;;;;;;4993315;28;20042;-67
2022/06/27 00:17:27;;;;;;;1.55;0.93;;;23.50;60.90;;;;;;4993159;28;20135;-69
2022/06/27 00:19:53;;;;;;;1.25;1.00;;;23.50;61.20;;;;;;4993146;28;20157;-69
2022/06/27 00:22:19;;;;;;;1.30;1.20;;;23.50;61.30;;;;;;4991898;28;20348;-69
2022/06/27 00:24:45;;;;;;;1.00;0.82;;;23.40;61.60;;;;;;4992400;28;20046;-69
2022/06/27 00:27:11;;;;;;;0.90;0.90;;;23.30;61.50;;;;;;4993685;28;20169;-69
2022/06/27 00:29:37;;;;;;;1.10;1.00;;;23.30;62.20;;;;;;4994113;28;20515;-70
2022/06/27 00:32:03;;;;;;;1.98;1.10;;;23.20;62.50;;;;;;4973991;28;20046;-70
2022/06/27 00:34:29;;;;;;;2.83;0.90;;;23.10;62.70;;;;;;4994294;28;20046;-69
2022/06/27 00:36:55;;;;;;;1.20;1.10;;;23.00;63.30;;;;;;4992804;28;20041;-69
2022/06/27 00:39:21;;;;;;;1.98;1.20;;;22.90;64.50;;;;;;4993850;28;20065;-69
2022/06/27 00:41:47;;;;;;;1.27;1.10;;;22.90;65.70;;;;;;4990716;28;20138;-67
2022/06/27 00:44:30;;;;;;;1.10;1.00;;;22.80;66.40;;;;;;4993493;28;20034;-67
2022/06/27 00:46:55;;;;;;;4.70;1.33;;;22.70;69.70;;;;;;4990977;28;20034;-67
2022/06/27 00:49:21;;;;;;;1.48;1.30;;;22.60;68.80;;;;;;4994781;28;20534;-68
2022/06/27 00:51:47;;;;;;;1.60;1.50;;;22.50;69.70;;;;;;4992712;28;20034;-66
2022/06/27 00:54:12;;;;;;;4.72;1.85;;;22.40;71.10;;;;;;4990962;28;20040;-66
2022/06/27 00:56:39;;;;;;;3.42;2.22;;;22.30;71.30;;;;;;4989603;28;20034;-66
2022/06/27 00:59:04;;;;;;;3.58;2.20;;;22.10;72.00;;;;;;4989550;28;20041;-65
2022/06/27 01:01:31;;;;;;;3.00;2.30;;;22.00;72.10;;;;;;4995619;28;20031;-67
2022/06/27 01:04:00;;;;;;;2.75;2.55;;;21.90;72.50;;;;;;4992919;28;20026;-67
2022/06/27 01:06:29;;;;;;;3.90;2.30;;;21.80;73.10;;;;;;4991544;28;20176;-66
2022/06/27 01:08:55;;;;;;;3.00;2.80;;;21.70;73.00;;;;;;4991647;28;20044;-67
2022/06/27 01:11:21;;;;;;;3.35;2.70;;;21.60;73.70;;;;;;4993342;28;20038;-66
2022/06/27 01:13:47;;;;;;;3.60;2.60;;;21.50;73.70;;;;;;4994052;28;20033;-67
2022/06/27 01:16:14;;;;;;;2.65;2.33;;;21.40;74.20;;;;;;4991798;28;20027;-67
2022/06/27 01:18:40;;;;;;;2.65;2.40;;;21.30;74.50;;;;;;4994876;28;20045;-68
2022/06/27 01:21:07;;;;;;;2.35;2.00;;;21.20;74.70;;;;;;4995406;28;20121;-68
2022/06/27 01:23:36;;;;;;;2.47;2.05;;;21.20;74.20;;;;;;4978928;28;20053;-67
2022/06/27 01:26:03;;;;;;;2.08;1.90;;;21.20;75.10;;;;;;4993438;28;20774;-68
2022/06/27 01:28:29;;;;;;;1.75;1.65;;;21.10;74.60;;;;;;4992289;28;20042;-68
2022/06/27 01:30:54;;;;;;;1.67;1.52;;;21.10;74.10;;;;;;4998308;28;20045;-67
2022/06/27 01:33:20;;;;;;;1.65;1.58;;;21.10;74.50;;;;;;4993456;28;20412;-68
2022/06/27 01:35:46;;;;;;;2.88;1.40;;;21.10;74.20;;;;;;4997017;28;20118;-67
2022/06/27 01:38:13;;;;;;;1.52;1.42;;;21.10;74.00;;;;;;4995369;28;20034;-67
2022/06/27 01:40:39;;;;;;;1.75;1.48;;;21.20;74.00;;;;;;4992713;28;20125;-67
2022/06/27 01:43:05;;;;;;;1.83;1.73;;;21.20;74.00;;;;;;4994992;28;20049;-67
2022/06/27 01:45:32;;;;;;;1.50;1.40;;;21.20;74.00;;;;;;4996222;28;20041;-67
2022/06/27 01:47:58;;;;;;;3.20;1.48;;;21.30;73.90;;;;;;4994662;28;20066;-68
2022/06/27 01:50:25;;;;;;;1.80;1.38;;;21.30;73.70;;;;;;4993948;28;20165;-68
2022/06/27 01:52:52;;;;;;;1.38;1.35;;;21.40;73.70;;;;;;4994195;28;20045;-68
2022/06/27 01:55:21;;;;;;;1.45;1.35;;;21.40;73.40;;;;;;4993443;28;20034;-67
2022/06/27 01:57:47;;;;;;;1.58;1.48;;;21.40;73.90;;;;;;4997508;28;20038;-67
2022/06/27 02:00:14;;;;;;;1.52;1.30;;;21.50;73.50;;;;;;4993078;28;20125;-68
2022/06/27 02:02:43;;;;;;;1.80;1.70;;;21.50;73.40;;;;;;4995253;28;20030;-67
2022/06/27 02:05:09;;;;;;;1.85;1.42;;;21.60;73.50;;;;;;4996590;28;20096;-67
2022/06/27 02:07:38;;;;;;;1.30;1.20;;;21.60;73.50;;;;;;4996112;28;20494;-68
2022/06/27 02:10:05;;;;;;;1.52;1.20;;;21.50;73.40;;;;;;4994533;28;20088;-67
2022/06/27 02:12:31;;;;;;;1.20;1.20;;;21.50;73.40;;;;;;4990290;28;20042;-69
2022/06/27 02:14:57;;;;;;;1.63;1.50;;;21.50;73.30;;;;;;4993918;28;20048;-67
2022/06/27 02:17:23;;;;;;;1.20;1.17;;;21.50;73.50;;;;;;4993633;28;20039;-67
2022/06/27 02:19:49;;;;;;;1.88;1.20;;;21.50;73.40;;;;;;4996036;28;20030;-67
2022/06/27 02:22:15;;;;;;;1.25;1.15;;;21.60;73.30;;;;;;4995021;28;20091;-68
2022/06/27 02:24:42;;;;;;;1.00;0.90;;;21.50;73.20;;;;;;4995027;28;20383;-68
2022/06/27 02:27:09;;;;;;;0.73;0.73;;;21.50;73.20;;;;;;4994137;28;20038;-68
2022/06/27 02:29:35;;;;;;;0.60;0.60;;;21.50;72.80;;;;;;4975905;28;20050;-67
2022/06/27 02:32:01;;;;;;;0.80;0.60;;;21.50;72.60;;;;;;4991260;28;20031;-67
2022/06/27 02:34:28;;;;;;;0.68;0.68;;;21.50;72.30;;;;;;4996757;28;20084;-68
2022/06/27 02:36:56;;;;;;;0.82;0.60;;;21.50;72.60;;;;;;4993739;28;20038;-68
2022/06/27 02:39:24;;;;;;;0.85;0.68;;;21.50;72.80;;;;;;4990824;28;20045;-67
2022/06/27 02:41:54;;;;;;;0.60;0.60;;;21.50;72.50;;;;;;4995033;28;20047;-67
2022/06/27 02:44:21;;;;;;;2.05;0.80;;;21.50;72.30;;;;;;4995215;28;20039;-67
2022/06/27 02:46:48;;;;;;;0.73;0.73;;;21.50;72.50;;;;;;4991603;28;20053;-68
2022/06/27 02:49:14;;;;;;;0.60;0.60;;;21.50;72.50;;;;;;4994542;28;20034;-68
2022/06/27 02:51:53;;;;;;;0.57;0.52;;;21.50;72.30;;;;;;4996544;28;20112;-68
2022/06/27 02:54:26;;;;;;;0.75;0.60;;;21.50;73.20;;;;;;4994601;28;20117;-67
2022/06/27 02:57:00;;;;;;;0.85;0.80;;;21.50;72.60;;;;;;4992310;28;20034;-68
2022/06/27 02:59:32;;;;;;;1.63;0.65;;;21.50;72.80;;;;;;4995410;28;20045;-68
2022/06/27 03:01:58;;;;;;;2.35;1.30;;;21.40;72.30;;;;;;4992437;28;20062;-67
2022/06/27 03:04:24;;;;;;;1.42;1.30;;;21.40;72.40;;;;;;4994515;28;20039;-68
2022/06/27 03:06:49;;;;;;;2.20;1.40;;;21.40;72.50;;;;;;4995155;28;20046;-67
2022/06/27 03:09:16;;;;;;;2.75;1.30;;;21.40;72.60;;;;;;4993518;28;20298;-67
2022/06/27 03:11:42;;;;;;;1.30;1.25;;;21.40;72.80;;;;;;4992618;28;20153;-68
2022/06/27 03:14:08;;;;;;;1.42;1.33;;;21.40;72.80;;;;;;4997880;28;20073;-66
2022/06/27 03:16:34;;;;;;;2.72;1.40;;;21.40;72.60;;;;;;4993370;28;20069;-67
2022/06/27 03:19:00;;;;;;;2.45;1.60;;;21.30;72.80;;;;;;4995886;28;20030;-68
2022/06/27 03:21:25;;;;;;;2.10;1.63;;;21.30;72.80;;;;;;4994450;28;20063;-67
2022/06/27 03:23:51;;;;;;;2.10;1.65;;;21.30;73.00;;;;;;4983671;28;20398;-67
2022/06/27 03:26:18;;;;;;;1.60;1.50;;;21.20;73.20;;;;;;4994377;28;20034;-68
2022/06/27 03:28:44;;;;;;;2.75;1.45;;;21.20;73.20;;;;;;4994823;28;20073;-67
2022/06/27 03:31:10;;;;;;;1.38;1.33;;;21.20;73.30;;;;;;4991854;28;20031;-67
2022/06/27 03:33:36;;;;;;;4.80;1.70;;;21.20;73.30;;;;;;4991986;28;20041;-68
2022/06/27 03:36:03;;;;;;;1.83;1.42;;;21.20;73.40;;;;;;4988891;28;20347;-67
2022/06/27 03:38:28;;;;;;;2.65;1.70;;;21.10;73.40;;;;;;4992330;28;20057;-67
2022/06/27 03:40:54;;;;;;;3.88;1.63;;;21.10;73.50;;;;;;4994932;28;20068;-67
2022/06/27 03:43:20;;;;;;;1.75;1.60;;;21.10;73.40;;;;;;4989337;28;20101;-67
2022/06/27 03:45:46;;;;;;;1.80;1.70;;;21.10;73.80;;;;;;4994051;28;20506;-67
2022/06/27 03:49:59;;;;;;;1.98;1.58;;;21.10;73.90;;;;;;4994157;28;20042;-67
2022/06/27 03:50:57;;;;;;;1.73;1.52;;;21.10;73.90;;;;;;4992345;28;20035;-68
2022/06/27 03:53:23;;;;;;;1.77;1.40;;;21.00;73.50;;;;;;4990327;28;20128;-67
2022/06/27 03:55:48;;;;;;;1.98;1.65;;;21.00;73.50;;;;;;4994846;28;20589;-67
2022/06/27 03:58:14;;;;;;;1.83;1.55;;;21.00;73.60;;;;;;4991275;28;20041;-67
2022/06/27 04:00:40;;;;;;;1.73;1.63;;;21.00;73.90;;;;;;4991025;28;20521;-67
2022/06/27 04:03:05;;;;;;;3.42;1.52;;;21.00;73.90;;;;;;4992291;28;20137;-68
2022/06/27 04:05:31;;;;;;;2.22;1.80;;;21.00;73.80;;;;;;4992116;28;20034;-68
2022/06/27 04:07:57;;;;;;;2.42;1.55;;;21.00;73.80;;;;;;4992837;28;20042;-67
2022/06/27 04:10:22;;;;;;;1.77;1.67;;;21.00;74.00;;;;;;4993027;28;20038;-67
2022/06/27 04:12:48;;;;;;;1.48;1.38;;;21.00;74.30;;;;;;4991067;28;20420;-67
2022/06/27 04:15:13;;;;;;;3.42;1.38;;;21.00;74.00;;;;;;4991662;28;21314;-67
2022/06/27 04:17:39;;;;;;;1.60;1.50;;;21.00;73.90;;;;;;4993002;28;20045;-68
2022/06/27 04:20:05;;;;;;;1.35;1.25;;;20.90;74.00;;;;;;4993455;28;20473;-67
2022/06/27 04:22:31;;;;;;;1.77;1.38;;;20.90;74.00;;;;;;4990477;28;20125;-68
2022/06/27 04:24:58;;;;;;;1.83;1.60;;;20.90;74.40;;;;;;4991491;28;20054;-67
2022/06/27 04:27:23;;;;;;;1.80;1.70;;;20.90;74.50;;;;;;4973110;28;20211;-68
2022/06/27 04:29:49;;;;;;;1.58;1.48;;;20.90;74.50;;;;;;4987901;28;20038;-68
2022/06/27 04:32:17;;;;;;;1.98;1.77;;;20.90;74.30;;;;;;4986362;28;20046;-68
2022/06/27 04:34:43;;;;;;;1.77;1.63;;;20.90;74.60;;;;;;4993747;28;20035;-67
2022/06/27 04:37:10;;;;;;;1.67;1.58;;;20.90;74.70;;;;;;4972944;28;20038;-68
2022/06/27 04:39:36;;;;;;;2.38;1.75;;;21.00;74.80;;;;;;4987601;28;21890;-68
2022/06/27 04:42:02;;;;;;;2.80;2.15;;;21.00;75.00;;;;;;4990708;28;20315;-68
2022/06/27 04:44:27;;;;;;;2.63;2.15;;;21.00;75.10;;;;;;4992633;28;20096;-68
2022/06/27 04:46:54;;;;;;;4.55;2.30;;;21.00;75.10;;;;;;4992691;28;20038;-68
2022/06/27 04:49:20;;;;;;;1.83;1.60;;;21.10;75.10;;;;;;4994665;28;20056;-68
2022/06/27 04:51:49;;;;;;;2.92;2.15;;;21.10;75.10;;;;;;4997523;28;20034;-67
2022/06/27 04:54:17;;;;;;;2.10;1.88;;;21.10;75.30;;;;;;4997347;28;20065;-68
2022/06/27 04:56:44;;;;;;;2.92;2.03;;;21.20;75.30;;;;;;4994412;28;20031;-68
2022/06/27 04:59:10;;;;;;;3.47;1.90;;;21.20;75.40;;;;;;4995972;28;20113;-68
2022/06/27 05:01:36;;;;;;;5.13;1.90;;;21.20;75.40;;;;;;4997550;28;20041;-68
2022/06/27 05:04:02;;;;;;;2.65;2.13;;;21.20;75.50;;;;;;4995844;28;20035;-68
2022/06/27 05:06:28;;;;;;;2.42;2.20;;;21.30;75.40;;;;;;4996994;28;20449;-67
2022/06/27 05:08:54;;;;;;;3.65;2.30;;;21.30;75.40;;;;;;4995909;28;20292;-67
2022/06/27 05:11:19;;;;;;;2.25;2.00;;;21.30;75.30;;;;;;4994881;28;20030;-68
2022/06/27 05:13:45;;;;;;;3.05;1.92;;;21.30;75.30;;;;;;4997551;28;20738;-69
2022/06/27 05:16:10;;;;;;;3.15;2.00;;;21.40;75.30;;;;;;4998034;28;20130;-69
2022/06/27 05:18:36;;;;;;;3.63;1.95;;;21.40;75.10;;;;;;4995542;28;20497;-68
2022/06/27 05:21:02;;;;;;;2.38;2.08;;;21.40;75.10;;;;;;4997842;28;20419;-68
2022/06/27 05:23:28;;;;;;;2.30;2.10;;;21.40;75.30;;;;;;4995899;28;20433;-68
2022/06/27 05:25:53;;;;;;;2.42;2.20;;;21.50;75.30;;;;;;4997557;28;20040;-68
2022/06/27 05:28:19;;;;;;;2.95;2.00;;;21.50;75.30;;;;;;4996249;28;20123;-69
2022/06/27 05:30:45;;;;;;;2.45;1.92;;;21.50;76.30;;;;;;4996457;28;20037;-68
2022/06/27 05:33:10;;;;;;;4.82;1.80;;;21.60;75.40;;;;;;4982479;28;20050;-68
2022/06/27 05:35:36;;;;;;;2.13;1.90;;;21.60;75.40;;;;;;4994538;28;20069;-68
2022/06/27 05:38:02;;;;;;;1.77;1.67;;;21.70;76.30;;;;;;4996909;28;20069;-69
2022/06/27 05:40:27;;;;;;;1.67;1.40;;;21.70;75.60;;;;;;4995361;28;20038;-68
2022/06/27 05:42:53;;;;;;;1.85;1.75;;;21.80;75.30;;;;;;4996709;28;20560;-69
2022/06/27 05:45:20;;;;;;;2.10;1.90;;;21.80;75.30;;;;;;4995363;28;20338;-68
2022/06/27 05:47:46;;;;;;;2.65;1.60;;;21.90;75.10;;;;;;4996332;28;20048;-68
2022/06/27 05:50:13;;;;;;;1.67;1.58;;;21.90;75.40;;;;;;4995231;28;20046;-68
2022/06/27 05:52:39;;;;;;;4.03;1.45;;;22.00;75.30;;;;;;4993657;28;20498;-68
2022/06/27 05:55:07;;;;;;;2.95;1.73;;;22.10;75.30;;;;;;4994417;28;20038;-68
2022/06/27 05:57:33;;;;;;;2.92;1.30;;;22.10;74.80;;;;;;4994137;28;20034;-69
2022/06/27 05:59:59;;;;;;;1.50;1.40;;;22.20;74.60;;;;;;4996090;28;20030;-69
2022/06/27 06:02:25;;;;;;;2.35;1.40;;;22.30;74.70;;;;;;4994898;28;20169;-68
2022/06/27 06:04:53;;;;;;;1.10;1.10;;;22.40;74.40;;;;;;4995755;28;20050;-68
2022/06/27 06:07:19;;;;;;;1.52;0.90;;;22.40;73.50;;;;;;4989796;28;20116;-69
2022/06/27 06:09:44;;;;;;;1.30;1.20;;;22.50;73.00;;;;;;4995686;28;20038;-68
2022/06/27 06:12:11;;;;;;;2.20;1.10;;;22.50;72.70;;;;;;4997780;28;20049;-69
2022/06/27 06:14:37;;;;;;;1.98;1.17;;;22.60;72.50;;;;;;4990376;28;20044;-69
2022/06/27 06:17:04;;;;;;;1.40;1.08;;;22.60;72.30;;;;;;4996742;28;20510;-68
2022/06/27 06:19:31;;;;;;;1.15;1.00;;;22.70;72.10;;;;;;4995091;28;20034;-68
2022/06/27 06:21:57;;;;;;;1.40;1.30;;;22.70;72.10;;;;;;4995701;28;20811;-69
2022/06/27 06:24:24;;;;;;;1.13;1.13;;;22.70;72.00;;;;;;4996835;28;20041;-69
2022/06/27 06:26:52;;;;;;;1.75;1.27;;;22.80;71.70;;;;;;4995761;28;20030;-69
2022/06/27 06:29:18;;;;;;;2.72;1.30;;;22.90;71.80;;;;;;4994316;28;20102;-68
2022/06/27 06:31:45;;;;;;;1.00;1.00;;;22.90;71.60;;;;;;4994410;28;20460;-69
2022/06/27 06:34:15;;;;;;;1.20;0.95;;;23.00;71.80;;;;;;4996053;28;20113;-68
2022/06/27 06:36:42;;;;;;;1.00;0.95;;;23.00;71.40;;;;;;4992430;28;22065;-69
2022/06/27 06:39:08;;;;;;;2.15;1.30;;;23.10;71.10;;;;;;4994744;28;20100;-68
2022/06/27 06:41:36;;;;;;;0.90;0.90;;;23.10;70.80;;;;;;4995182;28;20307;-69
2022/06/27 06:44:03;;;;;;;1.48;1.20;;;23.20;70.40;;;;;;4995324;28;20034;-69
2022/06/27 06:46:30;;;;;;;1.20;1.10;;;23.20;71.10;;;;;;4994916;28;20089;-69
2022/06/27 06:48:58;;;;;;;1.20;1.10;;;23.20;70.50;;;;;;4996000;28;20504;-69
2022/06/27 06:51:24;;;;;;;0.70;0.70;;;23.30;69.80;;;;;;4993730;28;20532;-69
2022/06/27 06:53:50;;;;;;;1.88;1.02;;;23.30;69.50;;;;;;4994452;28;20030;-68
2022/06/27 06:56:16;;;;;;;1.45;1.00;;;23.40;69.60;;;;;;4994197;28;20368;-68
2022/06/27 06:58:42;;;;;;;1.38;0.82;;;23.40;69.50;;;;;;4995293;28;20040;-69
2022/06/27 07:01:08;;;;;;;2.00;1.20;;;23.50;69.20;;;;;;4977619;28;20049;-69
2022/06/27 07:03:35;;;;;;;1.60;1.00;;;23.50;68.90;;;;;;4993308;28;20041;-69
2022/06/27 07:06:03;;;;;;;1.40;1.00;;;23.60;69.20;;;;;;4994069;28;20409;-68
2022/06/27 07:08:30;;;;;;;1.00;0.82;;;23.60;68.80;;;;;;4987654;28;20084;-69
2022/06/27 07:10:57;;;;;;;1.42;0.80;;;23.60;69.00;;;;;;4992782;28;20504;-69
2022/06/27 07:13:24;;;;;;;1.27;1.10;;;23.70;69.10;;;;;;4992497;28;20141;-68
2022/06/27 07:15:50;;;;;;;2.60;0.90;;;23.70;68.60;;;;;;4994353;28;20026;-69
2022/06/27 07:18:17;;;;;;;1.17;1.00;;;23.80;68.30;;;;;;4993140;28;20065;-69
2022/06/27 07:20:43;;;;;;;2.83;1.08;;;23.80;68.40;;;;;;4993501;28;20436;-69
2022/06/27 07:23:10;;;;;;;0.90;0.90;;;23.80;68.00;;;;;;4990272;28;20161;-69
2022/06/27 07:25:36;;;;;;;1.02;0.93;;;23.90;68.00;;;;;;4991250;28;20042;-69
2022/06/27 07:28:03;;;;;;;1.20;1.10;;;23.90;68.50;;;;;;4994886;28;20036;-69
2022/06/27 07:30:29;;;;;;;1.58;1.10;;;24.00;68.30;;;;;;4991541;28;20062;-69
2022/06/27 07:32:55;;;;;;;1.13;1.02;;;24.00;68.20;;;;;;4993905;28;20489;-69
2022/06/27 07:35:22;;;;;;;0.90;0.90;;;24.10;68.20;;;;;;4993560;28;20034;-69
2022/06/27 07:37:48;;;;;;;2.08;0.90;;;24.20;68.10;;;;;;4993496;28;20057;-69
2022/06/27 07:40:19;;;;;;;1.23;1.13;;;24.20;67.80;;;;;;4990109;28;20085;-69
2022/06/27 07:42:45;;;;;;;1.58;1.48;;;24.30;67.00;;;;;;4994505;28;20533;-70
2022/06/27 07:45:14;;;;;;;2.28;1.27;;;24.40;66.60;;;;;;4993332;28;20041;-70
2022/06/27 07:47:42;;;;;;;1.42;0.95;;;24.40;66.60;;;;;;4994408;28;20034;-70
2022/06/27 07:50:09;;;;;;;1.08;0.95;;;24.40;67.40;;;;;;4993004;28;20095;-69
2022/06/27 07:53:11;;;;;;;1.08;0.98;;;24.40;67.30;;;;;;4991580;28;20525;-70
2022/06/27 07:55:21;;;;;;;1.98;1.10;;;24.50;67.00;;;;;;4991154;28;20036;-69
2022/06/27 07:57:48;;;;;;;1.25;0.80;;;24.60;66.20;;;;;;4993472;28;20034;-70
2022/06/27 08:00:14;;;;;;;1.17;1.08;;;24.60;66.60;;;;;;4991843;28;20608;-70
2022/06/27 08:02:41;;;;;;;1.52;0.90;;;24.70;66.60;;;;;;4990907;28;20461;-70
2022/06/27 08:05:07;;;;;;;1.15;1.15;;;24.80;66.20;;;;;;4994725;28;20526;-70
2022/06/27 08:07:33;;;;;;;1.27;1.17;;;24.90;66.50;;;;;;4992052;28;20038;-70
2022/06/27 08:09:59;;;;;;;3.33;0.80;;;25.00;66.30;;;;;;4993778;28;20037;-70
2022/06/27 08:12:25;;;;;;;0.90;0.90;;;25.00;66.00;;;;;;4991907;28;20045;-69
2022/06/27 08:14:51;;;;;;;1.02;0.85;;;25.10;66.30;;;;;;4993266;28;20069;-69
2022/06/27 08:17:18;;;;;;;1.55;0.95;;;25.10;65.70;;;;;;4995001;28;20038;-70
2022/06/27 08:19:44;;;;;;;1.05;0.90;;;25.20;65.60;;;;;;4990263;28;20050;-70
2022/06/27 08:22:11;;;;;;;0.98;0.75;;;25.20;65.40;;;;;;4991092;28;20123;-70
2022/06/27 08:24:37;;;;;;;1.95;0.93;;;25.30;65.10;;;;;;4993756;28;20053;-69
2022/06/27 08:27:04;;;;;;;3.58;0.85;;;25.40;64.60;;;;;;4994381;28;20081;-70
2022/06/27 08:29:32;;;;;;;0.70;0.70;;;25.50;64.00;;;;;;4997805;28;20034;-70
2022/06/27 08:31:58;;;;;;;1.73;0.95;;;25.50;64.10;;;;;;4998087;28;20034;-69
2022/06/27 08:34:23;;;;;;;2.38;0.90;;;25.60;64.00;;;;;;4996049;28;20038;-69
2022/06/27 08:36:50;;;;;;;1.27;0.70;;;25.60;63.00;;;;;;4999323;28;20670;-68
2022/06/27 08:39:16;;;;;;;0.70;0.63;;;25.70;63.00;;;;;;4997403;28;20040;-70
2022/06/27 08:41:43;;;;;;;1.33;0.70;;;25.70;63.10;;;;;;4997044;28;20113;-70
2022/06/27 08:44:09;;;;;;;0.77;0.70;;;25.80;63.30;;;;;;4997582;28;20034;-69
2022/06/27 08:46:35;;;;;;;1.75;0.70;;;25.80;63.30;;;;;;4996873;28;20066;-69
2022/06/27 08:49:02;;;;;;;1.10;1.10;;;25.90;63.00;;;;;;4995884;28;20053;-70
2022/06/27 08:51:29;;;;;;;1.70;0.95;;;26.00;62.60;;;;;;4996454;28;20401;-70
2022/06/27 08:53:55;;;;;;;3.20;0.80;;;26.00;62.80;;;;;;4997683;28;20035;-69
2022/06/27 08:56:22;;;;;;;1.85;0.60;;;26.10;62.40;;;;;;4996988;28;20058;-70
2022/06/27 08:58:48;;;;;;;0.95;0.93;;;26.10;62.20;;;;;;4996011;28;20037;-70
2022/06/27 09:01:19;;;;;;;2.28;0.93;;;26.20;61.80;;;;;;4996598;28;20068;-70
2022/06/27 09:04:00;;;;;;;0.70;0.70;;;26.20;61.10;;;;;;4997821;28;20417;-69
2022/06/27 09:06:37;;;;;;;0.82;0.70;;;26.20;61.20;;;;;;4995094;28;20073;-69
2022/06/27 09:09:08;;;;;;;2.30;0.70;;;26.30;61.20;;;;;;4995788;28;20042;-71
2022/06/27 09:11:39;;;;;;;2.28;0.90;;;26.30;61.10;;;;;;4994872;28;21301;-69
2022/06/27 09:14:06;;;;;;;0.43;0.40;;;26.30;59.90;;;;;;4979095;28;20093;-69
2022/06/27 09:16:33;;;;;;;0.50;0.40;;;26.40;60.30;;;;;;4995181;28;20542;-69
2022/06/27 09:18:59;;;;;;;1.02;0.47;;;26.40;59.70;;;;;;4995123;28;20037;-70
2022/06/27 09:21:27;;;;;;;0.77;0.50;;;26.40;59.20;;;;;;4996840;28;20056;-69
2022/06/27 09:24:00;;;;;;;0.40;0.30;;;26.50;59.40;;;;;;4993725;28;20232;-70
2022/06/27 09:26:27;;;;;;;1.17;0.30;;;26.50;58.90;;;;;;4994985;28;20066;-70
2022/06/27 09:29:00;;;;;;;0.47;0.30;;;26.60;59.20;;;;;;4997271;28;20490;-69
2022/06/27 09:31:30;;;;;;;0.63;0.40;;;26.70;58.40;;;;;;4994949;28;20368;-70
2022/06/27 09:34:14;;;;;;;0.77;0.43;;;26.80;58.50;;;;;;4996067;28;20038;-69
2022/06/27 09:36:57;;;;;;;0.75;0.30;;;26.90;57.90;;;;;;4996900;28;20756;-70
2022/06/27 09:39:33;;;;;;;0.45;0.45;;;27.00;58.10;;;;;;4997142;28;20089;-69
2022/06/27 09:42:13;;;;;;;0.52;0.47;;;27.10;58.90;;;;;;4993210;28;20088;-69
2022/06/27 09:44:44;;;;;;;0.47;0.47;;;27.20;58.40;;;;;;4980213;28;20132;-69
2022/06/27 09:47:18;;;;;;;0.90;0.68;;;27.20;58.20;;;;;;4990682;28;20057;-70
2022/06/27 09:49:52;;;;;;;1.55;0.55;;;27.20;58.10;;;;;;4990609;28;20125;-70
2022/06/27 09:52:23;;;;;;;0.63;0.40;;;27.20;57.70;;;;;;4993660;28;20113;-69
2022/06/27 09:54:51;;;;;;;0.40;0.40;;;27.20;58.30;;;;;;4994111;28;20038;-70
2022/06/27 09:57:19;;;;;;;0.70;0.50;;;27.30;58.20;;;;;;4994545;28;20041;-69
2022/06/27 09:59:47;;;;;;;0.60;0.45;;;27.30;58.10;;;;;;4994285;28;20117;-70
2022/06/27 10:02:19;;;;;;;0.60;0.57;;;27.30;57.40;;;;;;4994682;28;20571;-70
2022/06/27 10:04:47;;;;;;;0.65;0.50;;;27.30;58.10;;;;;;4995352;28;20092;-69
2022/06/27 10:07:15;;;;;;;1.85;0.65;;;27.30;58.00;;;;;;4994583;28;20125;-70
2022/06/27 10:09:42;;;;;;;0.45;0.30;;;27.30;57.60;;;;;;4998839;28;20100;-69
2022/06/27 10:12:36;;;;;;;0.50;0.50;;;27.30;57.70;;;;;;4993531;28;20034;-69
2022/06/27 10:15:10;;;;;;;0.50;0.50;;;27.30;56.50;;;;;;4980267;28;20042;-69
2022/06/27 10:17:52;;;;;;;1.58;0.50;;;27.40;56.70;;;;;;4997742;28;20033;-70
2022/06/27 10:20:27;;;;;;;0.75;0.52;;;27.40;56.30;;;;;;4995950;28;20069;-69
2022/06/27 10:23:11;;;;;;;;;;;27.40;56.40;;;;;;4996328;28;20056;-69
2022/06/27 10:25:37;;;;;;;0.73;0.40;;;27.50;57.10;;;;;;4994145;28;19921;-70
2022/06/27 10:28:12;;;;;;;1.58;0.50;;;27.50;57.50;;;;;;4995439;28;20042;-69
2022/06/27 10:30:42;;;;;;;3.72;0.50;;;27.50;57.00;;;;;;4996473;28;20052;-70
2022/06/27 10:33:23;;;;;;;3.72;0.60;;;27.60;56.50;;;;;;4995533;28;20121;-69
2022/06/27 10:38:38;;;;;;;1.70;0.47;;;27.60;56.70;;;;;;4996746;28;20041;-69
2022/06/27 10:41:17;;;;;;;0.40;0.40;;;27.60;56.60;;;;;;4995848;28;20042;-69
2022/06/27 10:43:48;;;;;;;0.80;0.38;;;27.70;57.10;;;;;;4994303;28;20469;-69
2022/06/27 10:46:13;;;;;;;1.95;0.45;;;27.70;56.60;;;;;;4990793;28;20042;-69
2022/06/27 10:48:41;;;;;;;1.15;0.50;;;27.70;56.70;;;;;;4996583;28;20379;-69
2022/06/27 10:51:27;;;;;;;1.17;0.30;;;27.70;56.50;;;;;;4997029;28;20031;-69
2022/06/27 10:53:59;;;;;;;0.30;0.30;;;27.70;55.90;;;;;;4995063;28;20038;-69
2022/06/27 10:56:47;;;;;;;1.08;0.50;;;27.60;55.50;;;;;;4994549;28;20095;-71
2022/06/27 10:59:13;;;;;;;0.63;0.30;;;27.50;55.00;;;;;;4995573;28;20042;-70
2022/06/27 11:01:41;;;;;;;2.67;0.30;;;27.50;55.20;;;;;;4994771;28;20038;-70
2022/06/27 11:04:06;;;;;;;1.73;0.40;;;27.40;55.20;;;;;;4993393;28;20129;-69
2022/06/27 11:06:32;;;;;;;0.30;0.20;;;27.30;55.50;;;;;;4993787;28;20125;-69
2022/06/27 11:08:58;;;;;;;0.55;0.30;;;27.40;56.00;;;;;;4994114;28;20148;-69
2022/06/27 11:11:27;;;;;;;0.40;0.22;;;27.40;55.80;;;;;;4992755;28;20045;-69
2022/06/27 11:13:59;;;;;;;0.38;0.28;;;27.50;55.60;;;;;;4995600;28;20033;-69
2022/06/27 11:16:30;;;;;;;0.60;0.30;;;27.60;55.40;;;;;;4990711;28;20073;-69
2022/06/27 11:19:01;;;;;;;0.70;0.40;;;27.70;54.30;;;;;;4985093;28;20046;-70
2022/06/27 11:21:37;;;;;;;0.93;0.57;;;27.80;54.30;;;;;;4995286;28;20154;-70
2022/06/27 11:24:12;;;;;;;0.65;0.30;;;27.90;54.20;;;;;;4993347;28;20502;-70
2022/06/27 11:26:46;;;;;;;0.98;0.40;;;27.90;53.10;;;;;;4994067;28;20042;-70
2022/06/27 11:32:04;;;;;;;0.77;0.25;;;28.00;53.00;;;;;;4993438;28;20139;-70
2022/06/27 11:34:34;;;;;;;0.82;0.30;;;28.00;53.80;;;;;;4992938;28;20069;-69
2022/06/27 11:37:03;;;;;;;1.40;0.47;;;28.00;54.40;;;;;;4993833;28;20062;-70
2022/06/27 11:39:31;;;;;;;1.38;0.40;;;28.00;53.30;;;;;;4996513;28;20046;-70
2022/06/27 11:42:00;;;;;;;1.30;0.30;;;28.00;53.30;;;;;;4993492;28;20116;-69
2022/06/27 11:44:27;;;;;;;1.35;0.50;;;28.00;53.90;;;;;;4991719;28;20977;-69
2022/06/27 11:47:05;;;;;;;0.75;0.45;;;28.00;53.20;;;;;;4994050;28;20612;-70
2022/06/27 11:49:34;;;;;;;0.50;0.35;;;27.90;52.70;;;;;;4991509;28;20030;-69
2022/06/27 11:52:02;;;;;;;0.65;0.40;;;28.00;53.70;;;;;;4995732;28;20037;-70
2022/06/27 11:54:43;;;;;;;0.60;0.50;;;28.00;53.30;;;;;;4994165;28;20034;-70
2022/06/27 11:57:31;;;;;;;0.43;0.43;;;28.00;53.10;;;;;;4994462;28;20639;-70
2022/06/27 11:59:57;;;;;;;1.15;0.52;;;28.00;52.50;;;;;;4992430;28;20034;-69
2022/06/27 12:02:28;;;;;;;2.15;0.50;;;28.10;53.30;;;;;;4993929;28;20493;-70
2022/06/27 12:05:06;;;;;;;0.40;0.40;;;28.20;53.40;;;;;;4993001;28;20124;-70
2022/06/27 12:07:47;;;;;;;0.57;0.47;;;28.20;51.90;;;;;;4994622;28;20022;-69
2022/06/27 12:10:14;;;;;;;1.98;0.47;;;28.30;53.20;;;;;;4992521;28;20109;-69
2022/06/27 12:12:44;;;;;;;0.40;0.40;;;28.30;53.10;;;;;;4991093;28;20513;-70
2022/06/27 12:15:20;;;;;;;0.52;0.43;;;28.40;52.60;;;;;;4994986;28;20337;-70
2022/06/27 12:17:46;;;;;;;1.25;0.50;;;28.40;51.60;;;;;;4991280;28;20034;-69
2022/06/27 12:20:11;;;;;;;0.57;0.50;;;28.30;52.60;;;;;;4993390;28;20037;-70
2022/06/27 12:22:37;;;;;;;0.85;0.50;;;28.30;52.80;;;;;;4993224;28;20038;-69
2022/06/27 12:25:03;;;;;;;0.68;0.50;;;28.20;53.00;;;;;;4991814;28;20088;-69
2022/06/27 12:27:29;;;;;;;1.08;0.45;;;28.20;53.40;;;;;;4993053;28;20446;-69
2022/06/27 12:29:55;;;;;;;0.70;0.55;;;28.10;53.80;;;;;;4994644;28;20554;-69
2022/06/27 12:32:20;;;;;;;0.75;0.50;;;27.90;54.00;;;;;;4991052;28;20128;-70
2022/06/27 12:34:48;;;;;;;0.55;0.50;;;27.80;54.10;;;;;;4991668;28;20045;-70
2022/06/27 12:37:14;;;;;;;1.23;0.50;;;27.60;54.40;;;;;;4991918;28;20039;-69
2022/06/27 12:39:39;;;;;;;0.63;0.40;;;27.50;54.80;;;;;;4993605;28;20038;-70
2022/06/27 12:42:05;;;;;;;0.77;0.45;;;27.40;55.30;;;;;;4993326;28;20045;-70
2022/06/27 12:44:31;;;;;;;0.57;0.30;;;27.40;55.60;;;;;;4994190;28;20049;-69
2022/06/27 12:46:57;;;;;;;0.70;0.30;;;27.30;55.70;;;;;;4990456;28;20092;-69
2022/06/27 12:49:22;;;;;;;1.05;0.63;;;27.20;55.80;;;;;;4992083;28;20038;-69
2022/06/27 12:51:49;;;;;;;0.50;0.50;;;27.20;56.00;;;;;;4990310;28;20053;-69
2022/06/27 12:54:14;;;;;;;0.80;0.40;;;27.20;56.20;;;;;;4991501;28;20058;-69
2022/06/27 12:56:40;;;;;;;0.73;0.40;;;27.20;56.20;;;;;;4990754;28;20129;-69